Terminal Aerodrome Forecast
Issued by NWS Mt. Holly, NJ

Home | Current Version | Previous Version | Text Only | Print | Product List | Glossary On
Versions: 1 2 3 4 5 6 7 8 9 10 11 12 13 14 15 16 17 18 19 20
132
FTUS41 KPHI 302337
TAFABE
TAF
KABE 302337Z 3100/3124 12005KT P6SM OVC040
      TEMPO 3102/3106 4SM -RA OVC020
     FM310600 10007KT 4SM -RA BR OVC008
     FM311200 09009KT 3SM RA BR OVC006
     FM311500 09009KT 1SM +RA BR OVC005
     FM312100 08010G21KT 1SM -RA BR OVC006=

USA.gov is the U.S. government's official web portal to all federal, state and local government web resources and services.